Marion, IN

8:47 PM EDT on September 30, 2014 (GMT -0400)
Marion Municipal | Change Station
CLOSE
Current Station
Airport
Location: Marion,
Elevation: 856 ft
Nearby Weather Stations

Elev 856 ft 40.49 °N, 85.68 °W | Updated 12 minutes ago

Clear
Clear
50 °F
Feels Like 50 °F
N
4
Wind Variable Wind from ENE

Today
High -- | Low -- °F
--% Chance of Precip.
Yesterday
High -- | Low -- °F
Precip. -- in
7:38 AM 7:26 PM
Waxing Crescent, 41% visible
Pressure 30.00 in
Visibility 10.0 miles
Clouds Clear
Dew Point 45 °F
Humidity 82%
Rainfall 0.00 in
Snow Depth Not available.
UV 0 out of 12
Pollen 3.20 out of 12
Air Quality Not available.
Flu Activity Not available.
METAR KMZZ 010035Z AUTO 06003KT 10SM CLR 10/07 A3000 RMK AO2 T01010071

More Conditions Fewer Conditions

Pressure 30.00 in
Visibility 10.0 miles
Clouds Clear
Dew Point 45 °F
Humidity 82%
Rainfall 0.00 in
Snow Depth Not available.
UV 0 out of 12
Pollen 3.20 out of 12
Air Quality Not available.
Flu Activity Not available.
METAR KMZZ 010035Z AUTO 06003KT 10SM CLR 10/07 A3000 RMK AO2 T01010071

More Conditions Fewer Conditions

10-Day Weather Forecast

Almanac

Astronomy

Sep. 30, 2014 Rise Set
Actual Time 7:38 AM EDT 7:26 PM EDT
Civil Twilight 7:10 AM EDT 7:53 PM EDT
Nautical Twilight 6:39 AM EDT 8:25 PM EDT
Astronomical Twilight 6:07 AM EDT 8:57 PM EDT
Moon 1:46 PM EDT (9/30) 11:54 PM EDT (9/30)
Length of Visible Light 12h 42m
Length of Day
11h 48m
Tomorrow will be 2m 40s shorter.
Waxing Crescent, 41% of the Moon is Illuminated
Today
Waxing Crescent
Oct 1
First Quarter
Oct 8
Full
Oct 15
Last Quarter
Oct 23
New

Today's Extremes

State Highs State Lows

Community

WunderPhotos

Upload Photos

1,757,801 photos uploaded!

Nearby

Snow Depth

Station Depth Elevation
No new snow has been reported.

Earthquake Activity

City Distance Mag. Time & Date
No recent earthquake activity has been reported nearby.
Minimum magnitude displayed is 2.5.

Coastal Water Temperatures

Place Temperature
No Stations Reporting

Nearby Weather Stations